Time;durP1;ratioP1;P1;durP2;ratioP2;P2;SDS_P1;SDS_P2;PMS_P1;PMS_P2;Temp;Humidity;BMP_temperature;BMP_pressure;BME280_temperature;BME280_humidity;BME280_pressure;Samples;Min_cycle;Max_cycle;Signal;HPM_P1;HPM_P2
2023/04/25 00:00:10;;;;;;;;;;;;;;;;;;4989790;28;19957;-76
2023/04/25 00:02:36;;;;;;;;;;;;;;;;;;4972405;28;21370;-77
2023/04/25 00:05:01;;;;;;;;;;;;;;;;;;4988733;28;20180;-76
2023/04/25 00:07:27;;;;;;;;;;;;;;;;;;4970603;28;19925;-75
2023/04/25 00:09:52;;;;;;;;;;;;;;;;;;4992500;28;19926;-70
2023/04/25 00:12:20;;;;;;;;;;;;;;;;;;4975374;28;20399;-72
2023/04/25 00:14:46;;;;;;;;;;;;;;;;;;4988445;28;19921;-74
2023/04/25 00:17:12;;;;;;;;;;;;;;;;;;4987278;28;19922;-74
2023/04/25 00:19:37;;;;;;;;;;;;;;;;;;4974361;28;19929;-72
2023/04/25 00:22:02;;;;;;;;;;;;;;;;;;4985608;28;19924;-74
2023/04/25 00:24:28;;;;;;;;;;;;;;;;;;4990850;28;19932;-72
2023/04/25 00:26:53;;;;;;;;;;;;;;;;;;4987141;28;20379;-75
2023/04/25 00:29:18;;;;;;;;;;;;;;;;;;4989832;28;20377;-74
2023/04/25 00:31:44;;;;;;;;;;;;;;;;;;4990405;28;19984;-74
2023/04/25 00:34:09;;;;;;;;;;;;;;;;;;4989801;28;20361;-75
2023/04/25 00:36:34;;;;;;;;;;;;;;;;;;4987806;28;20194;-74
2023/04/25 00:39:00;;;;;;;;;;;;;;;;;;4992205;28;20396;-73
2023/04/25 00:41:25;;;;;;;;;;;;;;;;;;5006758;28;20388;-76
2023/04/25 00:43:51;;;;;;;;;;;;;;;;;;4989645;28;19926;-75
2023/04/25 00:46:18;;;;;;;;;;;;;;;;;;4991139;28;20080;-74
2023/04/25 00:48:46;;;;;;;;;;;;;;;;;;4992048;28;19921;-74
2023/04/25 00:51:11;;;;;;;;;;;;;;;;;;4990427;28;19932;-74
2023/04/25 00:53:37;;;;;;;;;;;;;;;;;;4988542;28;19925;-73
2023/04/25 00:56:02;;;;;;;;;;;;;;;;;;4975505;28;20514;-74
2023/04/25 00:58:27;;;;;;;;;;;;;;;;;;4993664;28;19917;-73
2023/04/25 01:00:53;;;;;;;;;;;;;;;;;;4987730;28;21537;-72
2023/04/25 01:03:21;;;;;;;;;;;;;;;;;;4990164;28;19921;-73
2023/04/25 01:05:47;;;;;;;;;;;;;;;;;;4991035;28;20014;-71
2023/04/25 01:08:12;;;;;;;;;;;;;;;;;;4973255;28;19921;-73
2023/04/25 01:10:37;;;;;;;;;;;;;;;;;;4991598;28;19925;-73
2023/04/25 01:13:03;;;;;;;;;;;;;;;;;;4991750;28;20317;-73
2023/04/25 01:15:28;;;;;;;;;;;;;;;;;;4993030;28;20357;-73
2023/04/25 01:17:56;;;;;;;;;;;;;;;;;;4974497;28;20381;-73
2023/04/25 01:20:24;;;;;;;;;;;;;;;;;;4994319;28;20048;-73
2023/04/25 01:22:52;;;;;;;;;;;;;;;;;;4995908;28;20325;-72
2023/04/25 01:25:20;;;;;;;;;;;;;;;;;;4991391;28;19948;-73
2023/04/25 01:27:47;;;;;;;;;;;;;;;;;;4988110;28;20060;-73
2023/04/25 01:30:15;;;;;;;;;;;;;;;;;;4993365;28;19925;-72
2023/04/25 01:32:40;;;;;;;;;;;;;;;;;;4992095;28;20357;-73
2023/04/25 01:35:09;;;;;;;;;;;;;;;;;;4992659;28;19928;-73
2023/04/25 01:37:34;;;;;;;;;;;;;;;;;;4992116;28;19921;-73
2023/04/25 01:40:02;;;;;;;;;;;;;;;;;;4986226;28;19921;-72
2023/04/25 01:42:27;;;;;;;;;;;;;;;;;;4989447;28;20339;-73
2023/04/25 01:44:53;;;;;;;;;;;;;;;;;;4991822;28;19926;-73
2023/04/25 01:47:18;;;;;;;;;;;;;;;;;;4989311;28;19956;-72
2023/04/25 01:49:46;;;;;;;;;;;;;;;;;;4991712;28;20012;-73
2023/04/25 01:52:11;;;;;;;;;;;;;;;;;;4988849;28;19918;-72
2023/04/25 01:54:43;;;;;;;;;;;;;;;;;;4990576;28;19977;-72
2023/04/25 01:57:09;;;;;;;;;;;;;;;;;;4988285;28;20163;-72
2023/04/25 01:59:39;;;;;;;;;;;;;;;;;;4975497;28;19917;-73
2023/04/25 02:02:07;;;;;;;;;;;;;;;;;;4991052;28;21378;-73
2023/04/25 02:04:35;;;;;;;;;;;;;;;;;;4988676;28;20614;-72
2023/04/25 02:07:01;;;;;;;;;;;;;;;;;;4989958;28;20409;-71
2023/04/25 02:09:26;;;;;;;;;;;;;;;;;;4989677;28;19968;-74
2023/04/25 02:11:54;;;;;;;;;;;;;;;;;;4978228;28;19921;-75
2023/04/25 02:14:20;;;;;;;;;;;;;;;;;;4990643;28;19925;-72
2023/04/25 02:16:48;;;;;;;;;;;;;;;;;;4993573;28;19976;-75
2023/04/25 02:19:14;;;;;;;;;;;;;;;;;;4987683;28;19922;-74
2023/04/25 02:21:39;;;;;;;;;;;;;;;;;;4986427;28;20871;-73
2023/04/25 02:24:05;;;;;;;;;;;;;;;;;;4973150;28;19926;-75
2023/04/25 02:26:30;;;;;;;;;;;;;;;;;;4972333;28;20063;-73
2023/04/25 02:28:55;;;;;;;;;;;;;;;;;;4977351;28;20374;-75
2023/04/25 02:31:21;;;;;;;;;;;;;;;;;;4989322;28;19922;-71
2023/04/25 02:33:46;;;;;;;;;;;;;;;;;;4991330;28;19921;-72
2023/04/25 02:36:11;;;;;;;;;;;;;;;;;;4972016;28;19991;-71
2023/04/25 02:38:37;;;;;;;;;;;;;;;;;;4987902;28;19928;-71
2023/04/25 02:41:02;;;;;;;;;;;;;;;;;;4983503;28;22063;-71
2023/04/25 02:43:28;;;;;;;;;;;;;;;;;;4990300;28;19921;-70
2023/04/25 02:45:53;;;;;;;;;;;;;;;;;;4989208;28;19921;-70
2023/04/25 02:48:18;;;;;;;;;;;;;;;;;;4989945;28;19947;-70
2023/04/25 02:50:45;;;;;;;;;;;;;;;;;;4990578;28;19932;-70
2023/04/25 02:53:10;;;;;;;;;;;;;;;;;;4987247;28;19932;-72
2023/04/25 02:55:38;;;;;;;;;;;;;;;;;;5007389;28;19921;-71
2023/04/25 02:58:06;;;;;;;;;;;;;;;;;;4991239;28;19939;-70
2023/04/25 03:00:34;;;;;;;;;;;;;;;;;;4990759;28;19928;-70
2023/04/25 03:02:59;;;;;;;;;;;;;;;;;;4994286;28;20289;-70
2023/04/25 03:05:25;;;;;;;;;;;;;;;;;;4991315;28;19928;-71
2023/04/25 03:07:50;;;;;;;;;;;;;;;;;;4985100;28;20380;-70
2023/04/25 03:10:16;;;;;;;;;;;;;;;;;;4989812;28;19928;-70
2023/04/25 03:12:41;;;;;;;;;;;;;;;;;;4988852;28;20001;-70
2023/04/25 03:15:07;;;;;;;;;;;;;;;;;;5008358;28;20292;-69
2023/04/25 03:17:33;;;;;;;;;;;;;;;;;;5009434;28;20007;-70
2023/04/25 03:19:58;;;;;;;;;;;;;;;;;;4991713;28;20376;-69
2023/04/25 03:22:23;;;;;;;;;;;;;;;;;;4989071;28;19964;-70
2023/04/25 03:24:49;;;;;;;;;;;;;;;;;;4989136;28;19921;-70
2023/04/25 03:27:14;;;;;;;;;;;;;;;;;;4989811;28;19921;-70
2023/04/25 03:29:40;;;;;;;;;;;;;;;;;;4973662;28;19923;-69
2023/04/25 03:32:07;;;;;;;;;;;;;;;;;;4991874;28;20008;-69
2023/04/25 03:34:33;;;;;;;;;;;;;;;;;;5009249;28;20027;-69
2023/04/25 03:36:58;;;;;;;;;;;;;;;;;;4990459;28;19971;-68
2023/04/25 03:39:23;;;;;;;;;;;;;;;;;;4975682;28;19928;-69
2023/04/25 03:41:49;;;;;;;;;;;;;;;;;;5008294;28;20365;-69
2023/04/25 03:44:14;;;;;;;;;;;;;;;;;;4973581;28;20055;-68
2023/04/25 03:46:42;;;;;;;;;;;;;;;;;;5008280;28;20208;-69
2023/04/25 03:49:08;;;;;;;;;;;;;;;;;;4990272;28;19936;-69
2023/04/25 03:51:33;;;;;;;;;;;;;;;;;;5006161;28;19921;-70
2023/04/25 03:53:58;;;;;;;;;;;;;;;;;;5006439;28;20063;-69
2023/04/25 03:56:24;;;;;;;;;;;;;;;;;;4972446;28;19920;-70
2023/04/25 03:58:49;;;;;;;;;;;;;;;;;;5008268;28;19945;-69
2023/04/25 04:01:14;;;;;;;;;;;;;;;;;;5007260;28;19920;-69
2023/04/25 04:03:42;;;;;;;;;;;;;;;;;;4991848;28;20299;-70
2023/04/25 04:06:08;;;;;;;;;;;;;;;;;;4990398;28;19917;-69
2023/04/25 04:08:34;;;;;;;;;;;;;;;;;;4991760;28;19921;-69
2023/04/25 04:10:59;;;;;;;;;;;;;;;;;;4990415;28;20296;-69
2023/04/25 04:13:27;;;;;;;;;;;;;;;;;;4975833;28;19917;-70
2023/04/25 04:15:52;;;;;;;;;;;;;;;;;;4995416;28;19925;-70
2023/04/25 04:18:20;;;;;;;;;;;;;;;;;;4997180;28;19924;-70
2023/04/25 04:20:45;;;;;;;;;;;;;;;;;;5012615;28;20032;-68
2023/04/25 04:23:10;;;;;;;;;;;;;;;;;;4996911;28;19925;-69
2023/04/25 04:25:36;;;;;;;;;;;;;;;;;;4991953;28;19941;-69
2023/04/25 04:28:01;;;;;;;;;;;;;;;;;;4975338;28;19928;-69
2023/04/25 04:30:29;;;;;;;;;;;;;;;;;;5009050;28;19924;-69
2023/04/25 04:32:55;;;;;;;;;;;;;;;;;;4990687;28;19928;-69
2023/04/25 04:35:23;;;;;;;;;;;;;;;;;;5013021;28;20637;-68
2023/04/25 04:37:48;;;;;;;;;;;;;;;;;;4991240;28;19917;-69
2023/04/25 04:40:15;;;;;;;;;;;;;;;;;;4991721;28;20548;-68
2023/04/25 04:42:45;;;;;;;;;;;;;;;;;;4978637;28;20170;-69
2023/04/25 04:45:12;;;;;;;;;;;;;;;;;;5011198;28;20396;-68
2023/04/25 04:47:40;;;;;;;;;;;;;;;;;;4991487;28;19931;-68
2023/04/25 04:50:08;;;;;;;;;;;;;;;;;;4975758;28;19925;-68
2023/04/25 04:52:36;;;;;;;;;;;;;;;;;;4977998;28;19924;-68
2023/04/25 04:55:01;;;;;;;;;;;;;;;;;;4990766;28;20439;-68
2023/04/25 04:57:26;;;;;;;;;;;;;;;;;;4993530;28;19921;-68
2023/04/25 04:59:54;;;;;;;;;;;;;;;;;;5009421;28;19932;-68
2023/04/25 05:02:20;;;;;;;;;;;;;;;;;;4993607;28;19916;-67
2023/04/25 05:04:45;;;;;;;;;;;;;;;;;;4992941;28;20377;-67
2023/04/25 05:07:11;;;;;;;;;;;;;;;;;;4998658;28;19995;-67
2023/04/25 05:09:41;;;;;;;;;;;;;;;;;;4991634;28;20023;-68
2023/04/25 05:12:06;;;;;;;;;;;;;;;;;;4994571;28;19920;-69
2023/04/25 05:14:37;;;;;;;;;;;;;;;;;;4990036;28;19971;-69
2023/04/25 05:17:08;;;;;;;;;;;;;;;;;;4994218;28;19917;-69
2023/04/25 05:19:33;;;;;;;;;;;;;;;;;;4977132;28;19924;-69
2023/04/25 05:21:58;;;;;;;;;;;;;;;;;;4980629;28;19916;-70
2023/04/25 05:24:26;;;;;;;;;;;;;;;;;;4993283;28;19960;-70
2023/04/25 05:26:52;;;;;;;;;;;;;;;;;;5007102;28;20012;-67
2023/04/25 05:29:22;;;;;;;;;;;;;;;;;;4992116;28;19983;-69
2023/04/25 05:31:51;;;;;;;;;;;;;;;;;;4974711;28;19917;-69
2023/04/25 05:34:16;;;;;;;;;;;;;;;;;;4994995;28;20380;-69
2023/04/25 05:36:44;;;;;;;;;;;;;;;;;;4997739;28;19999;-69
2023/04/25 05:39:10;;;;;;;;;;;;;;;;;;4974227;28;20388;-69
2023/04/25 05:41:35;;;;;;;;;;;;;;;;;;4972719;28;19921;-70
2023/04/25 05:44:00;;;;;;;;;;;;;;;;;;4977385;28;21474;-69
2023/04/25 05:46:26;;;;;;;;;;;;;;;;;;4990514;28;19921;-70
2023/04/25 05:48:54;;;;;;;;;;;;;;;;;;5009307;28;20509;-69
2023/04/25 05:51:19;;;;;;;;;;;;;;;;;;4990617;28;20003;-69
2023/04/25 05:53:45;;;;;;;;;;;;;;;;;;5009805;28;20015;-70
2023/04/25 05:56:10;;;;;;;;;;;;;;;;;;4975886;28;20315;-69
2023/04/25 05:58:35;;;;;;;;;;;;;;;;;;4975194;28;20395;-70
2023/04/25 06:01:00;;;;;;;;;;;;;;;;;;4974816;28;19916;-70
2023/04/25 06:03:29;;;;;;;;;;;;;;;;;;4972191;28;22098;-70
2023/04/25 06:05:55;;;;;;;;;;;;;;;;;;4968703;28;19932;-71
2023/04/25 06:08:20;;;;;;;;;;;;;;;;;;4967963;28;19922;-69
2023/04/25 06:10:45;;;;;;;;;;;;;;;;;;5002290;28;20284;-69
2023/04/25 06:13:11;;;;;;;;;;;;;;;;;;4981505;28;20275;-69
2023/04/25 06:15:36;;;;;;;;;;;;;;;;;;4992473;28;19921;-69
2023/04/25 06:18:01;;;;;;;;;;;;;;;;;;4992170;28;19957;-70
2023/04/25 06:20:29;;;;;;;;;;;;;;;;;;4990060;28;19924;-71
2023/04/25 06:22:55;;;;;;;;;;;;;;;;;;4973692;28;20375;-71
2023/04/25 06:25:23;;;;;;;;;;;;;;;;;;4975891;28;19925;-72
2023/04/25 06:27:48;;;;;;;;;;;;;;;;;;4986605;28;20003;-71
2023/04/25 06:30:13;;;;;;;;;;;;;;;;;;4974717;28;20323;-70
2023/04/25 06:32:41;;;;;;;;;;;;;;;;;;4988508;28;19921;-71
2023/04/25 06:35:06;;;;;;;;;;;;;;;;;;4991758;28;19921;-70
2023/04/25 06:37:35;;;;;;;;;;;;;;;;;;4981095;28;20265;-69
2023/04/25 06:40:00;;;;;;;;;;;;;;;;;;5010221;28;19968;-68
2023/04/25 06:42:28;;;;;;;;;;;;;;;;;;4976954;28;20371;-69
2023/04/25 06:44:56;;;;;;;;;;;;;;;;;;4990700;28;19959;-69
2023/04/25 06:47:24;;;;;;;;;;;;;;;;;;4990740;28;19940;-67
2023/04/25 06:49:52;;;;;;;;;;;;;;;;;;4988156;28;19921;-64
2023/04/25 06:52:17;;;;;;;;;;;;;;;;;;4988237;28;19948;-69
2023/04/25 06:54:43;;;;;;;;;;;;;;;;;;4984859;28;20051;-68
2023/04/25 06:57:08;;;;;;;;;;;;;;;;;;4975382;28;19924;-68
2023/04/25 06:59:33;;;;;;;;;;;;;;;;;;4985810;28;21515;-69
2023/04/25 07:01:58;;;;;;;;;;;;;;;;;;4984134;28;19921;-65
2023/04/25 07:04:24;;;;;;;;;;;;;;;;;;4987105;28;20304;-68
2023/04/25 07:06:53;;;;;;;;;;;;;;;;;;5003665;28;20000;-68
2023/04/25 07:09:18;;;;;;;;;;;;;;;;;;4993958;28;19917;-69
2023/04/25 07:11:46;;;;;;;;;;;;;;;;;;4988241;28;21106;-67
2023/04/25 07:14:14;;;;;;;;;;;;;;;;;;5004467;28;19931;-69
2023/04/25 07:16:44;;;;;;;;;;;;;;;;;;4988440;28;19928;-68
2023/04/25 07:19:15;;;;;;;;;;;;;;;;;;4974115;28;20522;-67
2023/04/25 07:21:40;;;;;;;;;;;;;;;;;;4988797;28;19917;-65
2023/04/25 07:24:05;;;;;;;;;;;;;;;;;;5005110;28;20399;-67
2023/04/25 07:26:31;;;;;;;;;;;;;;;;;;5006115;28;20300;-69
2023/04/25 07:28:58;;;;;;;;;;;;;;;;;;5004129;28;20020;-68
2023/04/25 07:31:26;;;;;;;;;;;;;;;;;;4988043;28;19932;-67
2023/04/25 07:33:51;;;;;;;;;;;;;;;;;;4989704;28;19920;-67
2023/04/25 07:36:16;;;;;;;;;;;;;;;;;;4991482;28;19932;-68
2023/04/25 07:38:42;;;;;;;;;;;;;;;;;;4971764;28;19975;-66
2023/04/25 07:41:07;;;;;;;;;;;;;;;;;;5001811;28;19921;-65
2023/04/25 07:43:32;;;;;;;;;;;;;;;;;;4972382;28;19932;-65
2023/04/25 07:46:00;;;;;;;;;;;;;;;;;;4977769;28;19932;-66
2023/04/25 07:48:28;;;;;;;;;;;;;;;;;;4972155;28;20285;-65
2023/04/25 07:50:56;;;;;;;;;;;;;;;;;;4973305;28;20430;-66
2023/04/25 07:53:24;;;;;;;;;;;;;;;;;;5006533;28;19917;-65
2023/04/25 07:55:52;;;;;;;;;;;;;;;;;;4988772;28;20438;-66
2023/04/25 07:58:21;;;;;;;;;;;;;;;;;;4973472;28;19917;-68
2023/04/25 08:00:46;;;;;;;;;;;;;;;;;;4988716;28;20359;-69
2023/04/25 08:03:17;;;;;;;;;;;;;;;;;;4970951;28;19920;-69
2023/04/25 08:05:48;;;;;;;;;;;;;;;;;;4969949;28;19932;-65
2023/04/25 08:08:16;;;;;;;;;;;;;;;;;;4990711;28;19928;-65
2023/04/25 08:10:44;;;;;;;;;;;;;;;;;;4989196;28;19921;-64
2023/04/25 08:13:12;;;;;;;;;;;;;;;;;;4992507;28;20321;-67
2023/04/25 08:15:37;;;;;;;;;;;;;;;;;;4970516;28;19921;-69
2023/04/25 08:18:03;;;;;;;;;;;;;;;;;;5001757;28;19921;-69
2023/04/25 08:20:30;;;;;;;;;;;;;;;;;;4971936;28;19929;-66
2023/04/25 08:22:56;;;;;;;;;;;;;;;;;;4986162;28;19921;-63
2023/04/25 08:25:21;;;;;;;;;;;;;;;;;;4990658;28;19921;-68
2023/04/25 08:27:49;;;;;;;;;;;;;;;;;;4986355;28;19932;-66
2023/04/25 08:30:14;;;;;;;;;;;;;;;;;;4972146;28;20391;-67
2023/04/25 08:32:43;;;;;;;;;;;;;;;;;;4986741;28;19983;-65
2023/04/25 08:35:11;;;;;;;;;;;;;;;;;;4989419;28;19978;-68
2023/04/25 08:37:39;;;;;;;;;;;;;;;;;;4986135;28;20395;-66
2023/04/25 08:40:06;;;;;;;;;;;;;;;;;;5004563;28;20587;-65
2023/04/25 08:42:35;;;;;;;;;;;;;;;;;;4971966;28;20409;-68
2023/04/25 08:45:00;;;;;;;;;;;;;;;;;;4969904;28;19925;-68
2023/04/25 08:47:25;;;;;;;;;;;;;;;;;;4985938;28;20022;-68
2023/04/25 08:49:51;;;;;;;;;;;;;;;;;;4970206;28;19928;-67
2023/04/25 08:52:21;;;;;;;;;;;;;;;;;;4989771;28;20004;-70
2023/04/25 08:54:46;;;;;;;;;;;;;;;;;;4986445;28;19925;-67
2023/04/25 08:57:12;;;;;;;;;;;;;;;;;;4969880;28;20910;-69
2023/04/25 08:59:45;;;;;;;;;;;;;;;;;;4970355;28;19918;-69
2023/04/25 09:02:14;;;;;;;;;;;;;;;;;;4986488;28;20007;-64
2023/04/25 09:04:39;;;;;;;;;;;;;;;;;;5007579;28;20035;-64
2023/04/25 09:07:04;;;;;;;;;;;;;;;;;;4978344;28;19917;-69
2023/04/25 09:09:30;;;;;;;;;;;;;;;;;;4991720;28;19921;-66
2023/04/25 09:11:59;;;;;;;;;;;;;;;;;;4988262;28;19917;-67
2023/04/25 09:14:27;;;;;;;;;;;;;;;;;;4976696;28;20305;-68
2023/04/25 09:16:53;;;;;;;;;;;;;;;;;;4987710;28;19921;-66
2023/04/25 09:19:20;;;;;;;;;;;;;;;;;;5007616;28;19932;-67
2023/04/25 09:21:46;;;;;;;;;;;;;;;;;;4992088;28;21552;-67
2023/04/25 09:24:14;;;;;;;;;;;;;;;;;;5008349;28;20007;-67
2023/04/25 09:26:43;;;;;;;;;;;;;;;;;;4972273;28;19925;-66
2023/04/25 09:29:09;;;;;;;;;;;;;;;;;;4976557;28;20688;-71
2023/04/25 09:31:34;;;;;;;;;;;;;;;;;;4973184;28;20048;-69
2023/04/25 09:34:02;;;;;;;;;;;;;;;;;;4994972;28;19960;-69
2023/04/25 09:36:28;;;;;;;;;;;;;;;;;;5007592;28;21395;-70
2023/04/25 09:38:56;;;;;;;;;;;;;;;;;;5005919;28;19963;-70
2023/04/25 09:41:21;;;;;;;;;;;;;;;;;;4975754;28;19917;-70
2023/04/25 09:43:50;;;;;;;;;;;;;;;;;;4975697;28;19921;-69
2023/04/25 09:46:17;;;;;;;;;;;;;;;;;;4976355;28;20038;-70
2023/04/25 09:48:42;;;;;;;;;;;;;;;;;;4986466;28;19917;-67
2023/04/25 09:51:10;;;;;;;;;;;;;;;;;;4972213;28;19924;-70
2023/04/25 09:53:36;;;;;;;;;;;;;;;;;;4991542;28;19945;-66
2023/04/25 09:56:01;;;;;;;;;;;;;;;;;;4990782;28;19960;-64
2023/04/25 09:58:26;;;;;;;;;;;;;;;;;;5009260;28;19943;-69
2023/04/25 10:00:54;;;;;;;;;;;;;;;;;;4994907;28;20372;-69
2023/04/25 10:03:22;;;;;;;;;;;;;;;;;;4973194;28;19917;-68
2023/04/25 10:05:52;;;;;;;;;;;;;;;;;;4992067;28;19939;-69
2023/04/25 10:08:17;;;;;;;;;;;;;;;;;;4992390;28;19971;-63
2023/04/25 10:10:42;;;;;;;;;;;;;;;;;;4974714;28;21684;-69
2023/04/25 10:13:10;;;;;;;;;;;;;;;;;;5004243;28;20380;-67
2023/04/25 10:15:40;;;;;;;;;;;;;;;;;;4990109;28;19921;-67
2023/04/25 10:18:06;;;;;;;;;;;;;;;;;;4965868;28;19988;-66
2023/04/25 10:20:34;;;;;;;;;;;;;;;;;;4984145;28;19956;-66
2023/04/25 10:23:00;;;;;;;;;;;;;;;;;;4989865;28;20369;-64
2023/04/25 10:25:27;;;;;;;;;;;;;;;;;;5004454;28;20379;-65
2023/04/25 10:27:55;;;;;;;;;;;;;;;;;;4974028;28;19956;-64
2023/04/25 10:30:26;;;;;;;;;;;;;;;;;;5004842;28;20542;-66
2023/04/25 10:32:54;;;;;;;;;;;;;;;;;;4987611;28;20719;-64
2023/04/25 10:35:19;;;;;;;;;;;;;;;;;;5008193;28;19927;-66
2023/04/25 10:37:47;;;;;;;;;;;;;;;;;;5003974;28;20380;-67
2023/04/25 10:40:13;;;;;;;;;;;;;;;;;;4987710;28;19921;-65
2023/04/25 10:42:40;;;;;;;;;;;;;;;;;;4974947;28;19917;-67
2023/04/25 10:45:08;;;;;;;;;;;;;;;;;;5007183;28;19920;-69
2023/04/25 10:47:39;;;;;;;;;;;;;;;;;;4967118;28;19948;-70
2023/04/25 10:50:04;;;;;;;;;;;;;;;;;;4998525;28;19920;-67
2023/04/25 10:52:33;;;;;;;;;;;;;;;;;;4986442;28;19929;-68
2023/04/25 10:55:01;;;;;;;;;;;;;;;;;;5000557;28;20063;-69
2023/04/25 10:57:28;;;;;;;;;;;;;;;;;;4975778;28;20250;-68
2023/04/25 10:59:56;;;;;;;;;;;;;;;;;;5003831;28;20012;-66
2023/04/25 11:02:25;;;;;;;;;;;;;;;;;;4986790;28;20012;-69
2023/04/25 11:04:53;;;;;;;;;;;;;;;;;;5004188;28;19929;-67
2023/04/25 11:07:18;;;;;;;;;;;;;;;;;;5003275;28;19921;-69
2023/04/25 11:09:46;;;;;;;;;;;;;;;;;;4971619;28;20508;-66
2023/04/25 11:12:14;;;;;;;;;;;;;;;;;;4987173;28;19925;-68
2023/04/25 11:14:43;;;;;;;;;;;;;;;;;;4967646;28;19936;-68
2023/04/25 11:17:08;;;;;;;;;;;;;;;;;;4969893;28;19921;-69
2023/04/25 11:19:34;;;;;;;;;;;;;;;;;;4976984;28;20281;-69
2023/04/25 11:22:01;;;;;;;;;;;;;;;;;;4987094;28;20005;-66
2023/04/25 11:24:27;;;;;;;;;;;;;;;;;;4992905;28;20562;-68
2023/04/25 11:26:52;;;;;;;;;;;;;;;;;;5004208;28;19918;-65
2023/04/25 11:29:20;;;;;;;;;;;;;;;;;;4987744;28;20349;-67
2023/04/25 11:31:48;;;;;;;;;;;;;;;;;;4974652;28;19924;-65
2023/04/25 11:34:16;;;;;;;;;;;;;;;;;;4989080;28;19924;-65
2023/04/25 11:36:45;;;;;;;;;;;;;;;;;;4988145;28;19929;-68
2023/04/25 11:39:10;;;;;;;;;;;;;;;;;;4993374;28;20292;-64
2023/04/25 11:41:36;;;;;;;;;;;;;;;;;;4982627;28;19972;-68
2023/04/25 11:44:01;;;;;;;;;;;;;;;;;;5006788;28;19921;-66
2023/04/25 11:46:27;;;;;;;;;;;;;;;;;;5006919;28;19931;-66
2023/04/25 11:48:52;;;;;;;;;;;;;;;;;;4989303;28;19921;-67
2023/04/25 11:51:18;;;;;;;;;;;;;;;;;;4970943;28;19936;-63
2023/04/25 11:53:43;;;;;;;;;;;;;;;;;;4972923;28;20043;-65
2023/04/25 11:56:10;;;;;;;;;;;;;;;;;;4990385;28;19921;-66
2023/04/25 11:58:37;;;;;;;;;;;;;;;;;;4988572;28;20291;-65
2023/04/25 12:01:03;;;;;;;;;;;;;;;;;;4987305;28;20008;-66
2023/04/25 12:03:30;;;;;;;;;;;;;;;;;;5006832;28;19925;-63
2023/04/25 12:05:56;;;;;;;;;;;;;;;;;;4977391;28;19956;-64
2023/04/25 12:08:21;;;;;;;;;;;;;;;;;;4972408;28;19920;-66
2023/04/25 12:10:49;;;;;;;;;;;;;;;;;;4987328;28;19921;-64
2023/04/25 12:13:15;;;;;;;;;;;;;;;;;;4991346;28;20023;-62
2023/04/25 12:15:41;;;;;;;;;;;;;;;;;;4989223;28;20003;-61
2023/04/25 12:18:08;;;;;;;;;;;;;;;;;;4971680;28;20392;-63
2023/04/25 12:20:34;;;;;;;;;;;;;;;;;;4989361;28;19984;-65
2023/04/25 12:23:02;;;;;;;;;;;;;;;;;;4990436;28;20300;-65
2023/04/25 12:25:30;;;;;;;;;;;;;;;;;;4986527;28;19925;-64
2023/04/25 12:27:58;;;;;;;;;;;;;;;;;;5006307;28;20379;-65
2023/04/25 12:30:24;;;;;;;;;;;;;;;;;;5007173;28;19940;-61
2023/04/25 12:32:49;;;;;;;;;;;;;;;;;;4988643;28;21510;-64
2023/04/25 12:35:17;;;;;;;;;;;;;;;;;;5010411;28;20529;-63
2023/04/25 12:37:45;;;;;;;;;;;;;;;;;;5009177;28;20260;-63
2023/04/25 12:40:11;;;;;;;;;;;;;;;;;;4993482;28;19917;-62
2023/04/25 12:42:36;;;;;;;;;;;;;;;;;;4995498;28;19925;-63
2023/04/25 12:45:07;;;;;;;;;;;;;;;;;;5011354;28;19983;-64
2023/04/25 12:47:35;;;;;;;;;;;;;;;;;;5005543;28;20319;-66
2023/04/25 12:50:03;;;;;;;;;;;;;;;;;;4991880;28;19932;-62
2023/04/25 12:52:29;;;;;;;;;;;;;;;;;;4975157;28;19933;-64
2023/04/25 12:54:57;;;;;;;;;;;;;;;;;;4972751;28;19927;-65
2023/04/25 12:57:22;;;;;;;;;;;;;;;;;;4990618;28;20297;-64
2023/04/25 12:59:51;;;;;;;;;;;;;;;;;;4974098;28;20040;-63
2023/04/25 13:02:16;;;;;;;;;;;;;;;;;;4976272;28;20835;-64
2023/04/25 13:04:42;;;;;;;;;;;;;;;;;;4990095;28;20389;-62
2023/04/25 13:07:10;;;;;;;;;;;;;;;;;;4998013;28;19917;-64
2023/04/25 13:09:38;;;;;;;;;;;;;;;;;;4975402;28;20047;-64
2023/04/25 13:12:06;;;;;;;;;;;;;;;;;;5010394;28;20512;-64
2023/04/25 13:14:31;;;;;;;;;;;;;;;;;;4997003;28;19921;-65
2023/04/25 13:16:59;;;;;;;;;;;;;;;;;;5009019;28;20620;-63
2023/04/25 13:19:27;;;;;;;;;;;;;;;;;;5009700;28;20007;-63
2023/04/25 13:21:55;;;;;;;;;;;;;;;;;;5006977;28;20007;-64
2023/04/25 13:24:22;;;;;;;;;;;;;;;;;;4990452;28;20328;-63
2023/04/25 13:26:50;;;;;;;;;;;;;;;;;;4990590;28;20955;-63
2023/04/25 13:29:20;;;;;;;;;;;;;;;;;;5009859;28;19963;-62
2023/04/25 13:31:46;;;;;;;;;;;;;;;;;;4986783;28;19932;-63
2023/04/25 13:34:15;;;;;;;;;;;;;;;;;;5010555;28;20316;-65
2023/04/25 13:36:40;;;;;;;;;;;;;;;;;;5008303;28;19921;-65
2023/04/25 13:39:08;;;;;;;;;;;;;;;;;;4990042;28;20800;-64
2023/04/25 13:41:36;;;;;;;;;;;;;;;;;;4990969;28;20754;-65
2023/04/25 13:44:04;;;;;;;;;;;;;;;;;;4970178;28;19920;-65
2023/04/25 13:46:33;;;;;;;;;;;;;;;;;;5007480;28;20434;-66
2023/04/25 13:49:01;;;;;;;;;;;;;;;;;;5009485;28;19951;-64
2023/04/25 13:51:26;;;;;;;;;;;;;;;;;;5009846;28;20379;-64
2023/04/25 13:53:52;;;;;;;;;;;;;;;;;;5008732;28;19921;-65
2023/04/25 13:56:20;;;;;;;;;;;;;;;;;;4991216;28;20324;-64
2023/04/25 13:58:45;;;;;;;;;;;;;;;;;;4978480;28;19921;-63
2023/04/25 14:01:11;;;;;;;;;;;;;;;;;;4976654;28;20393;-63
2023/04/25 14:03:39;;;;;;;;;;;;;;;;;;4975491;28;19927;-63
2023/04/25 14:06:08;;;;;;;;;;;;;;;;;;5008425;28;20145;-62
2023/04/25 14:08:33;;;;;;;;;;;;;;;;;;4990402;28;19961;-64
2023/04/25 14:10:59;;;;;;;;;;;;;;;;;;4988009;28;19923;-64
2023/04/25 14:13:24;;;;;;;;;;;;;;;;;;4991132;28;19929;-62
2023/04/25 14:15:53;;;;;;;;;;;;;;;;;;4967210;28;19929;-62
2023/04/25 14:18:20;;;;;;;;;;;;;;;;;;4994812;28;19921;-63
2023/04/25 14:20:49;;;;;;;;;;;;;;;;;;5003131;28;20547;-65
2023/04/25 14:23:15;;;;;;;;;;;;;;;;;;4991335;28;19922;-65
2023/04/25 14:25:45;;;;;;;;;;;;;;;;;;4988341;28;19966;-65
2023/04/25 14:28:10;;;;;;;;;;;;;;;;;;4991493;28;19925;-64
2023/04/25 14:30:38;;;;;;;;;;;;;;;;;;4970278;28;19921;-63
2023/04/25 14:33:03;;;;;;;;;;;;;;;;;;4971512;28;20027;-65
2023/04/25 14:35:29;;;;;;;;;;;;;;;;;;5009281;28;19917;-65
2023/04/25 14:37:57;;;;;;;;;;;;;;;;;;4971916;28;19916;-66
2023/04/25 14:40:22;;;;;;;;;;;;;;;;;;4989525;28;19921;-64
2023/04/25 14:42:48;;;;;;;;;;;;;;;;;;4987536;28;19949;-65
2023/04/25 14:45:13;;;;;;;;;;;;;;;;;;4976827;28;19925;-65
2023/04/25 14:47:38;;;;;;;;;;;;;;;;;;4977167;28;19924;-65
2023/04/25 14:50:04;;;;;;;;;;;;;;;;;;4974376;28;19932;-65
2023/04/25 14:52:30;;;;;;;;;;;;;;;;;;4987120;28;19979;-63
2023/04/25 14:54:56;;;;;;;;;;;;;;;;;;4965862;28;19928;-66
2023/04/25 14:57:21;;;;;;;;;;;;;;;;;;4990359;28;20238;-63
2023/04/25 14:59:47;;;;;;;;;;;;;;;;;;4970340;28;19928;-65
2023/04/25 15:02:12;;;;;;;;;;;;;;;;;;5008318;28;19928;-65
2023/04/25 15:04:40;;;;;;;;;;;;;;;;;;4982007;28;20549;-65
2023/04/25 15:07:11;;;;;;;;;;;;;;;;;;4988554;28;21487;-64
2023/04/25 15:09:36;;;;;;;;;;;;;;;;;;4987633;28;20539;-65
2023/04/25 15:12:01;;;;;;;;;;;;;;;;;;4987184;28;19920;-66
2023/04/25 15:14:27;;;;;;;;;;;;;;;;;;5009746;28;20344;-62
2023/04/25 15:16:52;;;;;;;;;;;;;;;;;;4992161;28;19956;-61
2023/04/25 15:19:17;;;;;;;;;;;;;;;;;;4989171;28;19928;-65
2023/04/25 15:21:42;;;;;;;;;;;;;;;;;;5004132;28;19917;-62
2023/04/25 15:24:08;;;;;;;;;;;;;;;;;;5007924;28;19928;-62
2023/04/25 15:26:35;;;;;;;;;;;;;;;;;;4982044;28;23088;-65
2023/04/25 15:29:00;;;;;;;;;;;;;;;;;;4990183;28;20571;-64
2023/04/25 15:31:26;;;;;;;;;;;;;;;;;;5006733;28;19924;-65
2023/04/25 15:33:51;;;;;;;;;;;;;;;;;;4990715;28;19921;-65
2023/04/25 15:36:22;;;;;;;;;;;;;;;;;;5005703;28;20163;-64
2023/04/25 15:38:47;;;;;;;;;;;;;;;;;;5007614;28;19923;-64
2023/04/25 15:41:12;;;;;;;;;;;;;;;;;;4970487;28;19921;-64
2023/04/25 15:43:39;;;;;;;;;;;;;;;;;;4971376;28;19916;-64
2023/04/25 15:46:05;;;;;;;;;;;;;;;;;;5006270;28;19929;-64
2023/04/25 15:48:31;;;;;;;;;;;;;;;;;;4987824;28;20380;-64
2023/04/25 15:50:59;;;;;;;;;;;;;;;;;;5006149;28;20020;-63
2023/04/25 15:53:25;;;;;;;;;;;;;;;;;;4971307;28;21684;-66
2023/04/25 15:55:53;;;;;;;;;;;;;;;;;;4990806;28;19925;-64
2023/04/25 15:58:18;;;;;;;;;;;;;;;;;;4968685;28;19974;-65
2023/04/25 16:00:48;;;;;;;;;;;;;;;;;;4987962;28;19929;-65
2023/04/25 16:03:14;;;;;;;;;;;;;;;;;;5004167;28;20452;-64
2023/04/25 16:05:40;;;;;;;;;;;;;;;;;;4987773;28;19925;-64
2023/04/25 16:08:08;;;;;;;;;;;;;;;;;;5004940;28;20578;-64
2023/04/25 16:10:37;;;;;;;;;;;;;;;;;;4994106;28;20387;-64
2023/04/25 16:13:02;;;;;;;;;;;;;;;;;;4976008;28;19975;-65
2023/04/25 16:15:28;;;;;;;;;;;;;;;;;;4973292;28;19925;-64
2023/04/25 16:17:56;;;;;;;;;;;;;;;;;;5008562;28;19921;-65
2023/04/25 16:20:22;;;;;;;;;;;;;;;;;;4988773;28;20566;-64
2023/04/25 16:22:47;;;;;;;;;;;;;;;;;;4990135;28;19921;-65
2023/04/25 16:25:13;;;;;;;;;;;;;;;;;;5010429;28;20149;-64
2023/04/25 16:27:38;;;;;;;;;;;;;;;;;;4991371;28;19921;-65
2023/04/25 16:30:07;;;;;;;;;;;;;;;;;;4997356;28;20368;-66
2023/04/25 16:32:32;;;;;;;;;;;;;;;;;;4976008;28;19917;-64
2023/04/25 16:34:57;;;;;;;;;;;;;;;;;;5009111;28;19967;-64
2023/04/25 16:37:22;;;;;;;;;;;;;;;;;;4989578;28;20315;-66
2023/04/25 16:39:50;;;;;;;;;;;;;;;;;;4992877;28;19922;-65